KFAY/FAY METAR and TAF weather

Enter ICAO airport designator
Station Type Date Time Source
KFAY METAR 2020/07/07 09:53 UTC NOAA

KFAY 070953Z AUTO 00000KT 7SM FEW016 22/21 A3005 RMK AO2 SLP169 T02220211


Station Type Date Time Source
KFAY Decoded METAR 2020/07/07 09:53 UTC NOAA

FAYETTEVILLE REGIONAL AIRPORT , NC, United States (KFAY) 34-59N 078-53W 55M
Jul 07, 2020 - 05:53 AM EDT / 2020.07.07 0953 UTC
Wind: Calm:0
Visibility: 7 mile(s):0
Sky conditions: mostly clear
Temperature: 72.0 F (22.2 C)
Dew Point: 70.0 F (21.1 C)
Relative Humidity: 93%
Pressure (altimeter): 30.05 in. Hg (1017 hPa)
ob: KFAY 070953Z AUTO 00000KT 7SM FEW016 22/21 A3005 RMK AO2 SLP169 T02220211
cycle: 10

Station Type Date Time Source
KFAY TAF 2020/07/07 06:48 UTC NOAA

TAF KFAY 070540Z 0706/0806 14005KT P6SM SCT250
FM070800 00000KT 4SM BR SCT007 BKN250
FM071600 15007KT 5SM -SHRA SCT025 BKN035
TEMPO 0719/0723 4SM -TSRA BKN030CB
FM080200 13003KT P6SM BKN012 OVC040

Example: see airport list